Black River (Missouri), Leeper (07062500)

StateMissouriLatestLow (578 cfs)
RiverBlack RiverRatingObservedEstimated
Updated2026-05-10 8:30 (53 minutes ago)Flood - The river is flooding. Obstacles can be treacherous or deadly. The river should be avoided at this stage for casual trips and definitely for the inexperienced. Trips should be attempted only with protective gear and equipment.Flood(none)3539
Discharge578 cfs (median: 1360 cfs)High - The river is high and potentially dangerous, especially for the young and / or inexperienced. Normal stream obstacles are sometimes difficult to navigate. Extended distances can be attempted, but canoe travel may not be advisable.High(none)1266
Height2.85 feetGood - Conditions are ideal for a canoe or kayak. Boats typically will drag on fewer than one-quarter of riffles, if at all, and portages are unnecessary or rare. Normal float lengths can be attempted without a problem.Good(none)716
TrendSteady (falling over 24 hours)Low - River is low but can still be floated. Some riffles are okay but most come with significant dragging and might need a portage. Float lengths should be reduced to accommodate low flow, dragging, and portages.Low(none)428
USGSExternal icon USGS Site (External icon Duck Duck Go Maps)Poor - River is too low to float comfortably. Most or all riffles will drag or must be portaged and some obstacles (such as slick shelf rock) cause undue problems. Avoid the river at this stage for casual paddling trips.Poor(none)221

Trending Data

Plot Image

Trips for Black River (Missouri), Leeper (07062500)

DateStartEndDistanceConditionDischargeHeightFishingDetails

A total of 0 rows are displayed.

Condition Descriptions

Fishing Conditions

Fish Species

Notes

Classic Trip List

The classic River Trips application is still available for use. It is updated with the new system using a data retrofit. It is no longer maintained. The original River Trips application is no longer updated (as of 1 Dec 2016) but can be checked for errors or for the condition of the data before it was converted to the new system.

Gauge Data Table

ObservationHeightDischargeMaximum
Discharge
Minimum
Discharge
Mean
Discharge
P05P10P20P25P50
(Median)
P75P80P90P95
2026-05-10 08:30 2.85 578 4840 (2017) 230 (1981) 1770 308 358 496 534 1360 2990 3280 3530 3650
2026-05-10 07:30 2.85 578 4840 (2017) 230 (1981) 1770 308 358 496 534 1360 2990 3280 3530 3650
2026-05-10 06:30 2.86 582 4840 (2017) 230 (1981) 1770 308 358 496 534 1360 2990 3280 3530 3650
2026-05-10 05:30 2.85 578 4840 (2017) 230 (1981) 1770 308 358 496 534 1360 2990 3280 3530 3650
2026-05-10 04:30 2.85 578 4840 (2017) 230 (1981) 1770 308 358 496 534 1360 2990 3280 3530 3650
2026-05-10 03:30 2.85 578 4840 (2017) 230 (1981) 1770 308 358 496 534 1360 2990 3280 3530 3650
2026-05-10 02:30 2.86 582 4840 (2017) 230 (1981) 1770 308 358 496 534 1360 2990 3280 3530 3650
2026-05-10 01:30 2.85 578 4840 (2017) 230 (1981) 1770 308 358 496 534 1360 2990 3280 3530 3650
2026-05-10 00:30 2.86 582 4840 (2017) 230 (1981) 1770 308 358 496 534 1360 2990 3280 3530 3650
2026-05-09 23:30 2.85 578 4840 (2017) 230 (1981) 1770 308 358 496 534 1360 2990 3280 3530 3650
2026-05-09 22:30 2.87 587 4880 (2017) 194 (1980) 1760 303 362 504 571 1400 3020 3170 3520 3650
2026-05-09 21:30 2.85 578 4880 (2017) 194 (1980) 1760 303 362 504 571 1400 3020 3170 3520 3650
2026-05-09 20:30 2.85 578 4880 (2017) 194 (1980) 1760 303 362 504 571 1400 3020 3170 3520 3650
2026-05-09 19:30 2.86 582 4880 (2017) 194 (1980) 1760 303 362 504 571 1400 3020 3170 3520 3650
2026-05-09 18:30 2.85 578 4880 (2017) 194 (1980) 1760 303 362 504 571 1400 3020 3170 3520 3650
2026-05-09 17:30 2.86 582 4880 (2017) 194 (1980) 1760 303 362 504 571 1400 3020 3170 3520 3650
2026-05-09 16:30 2.86 582 4880 (2017) 194 (1980) 1760 303 362 504 571 1400 3020 3170 3520 3650
2026-05-09 15:30 2.87 587 4880 (2017) 194 (1980) 1760 303 362 504 571 1400 3020 3170 3520 3650
2026-05-09 14:30 2.87 587 4880 (2017) 194 (1980) 1760 303 362 504 571 1400 3020 3170 3520 3650
2026-05-09 13:30 2.86 582 4880 (2017) 194 (1980) 1760 303 362 504 571 1400 3020 3170 3520 3650
2026-05-09 12:30 2.87 587 4880 (2017) 194 (1980) 1760 303 362 504 571 1400 3020 3170 3520 3650
2026-05-09 11:30 2.87 587 4880 (2017) 194 (1980) 1760 303 362 504 571 1400 3020 3170 3520 3650
2026-05-09 10:30 2.88 591 4880 (2017) 194 (1980) 1760 303 362 504 571 1400 3020 3170 3520 3650
2026-05-09 09:30 2.87 587 4880 (2017) 194 (1980) 1760 303 362 504 571 1400 3020 3170 3520 3650
2026-05-09 08:30 2.87 587 4880 (2017) 194 (1980) 1760 303 362 504 571 1400 3020 3170 3520 3650
2026-05-09 07:30 2.87 587 4880 (2017) 194 (1980) 1760 303 362 504 571 1400 3020 3170 3520 3650
2026-05-09 06:30 2.88 591 4880 (2017) 194 (1980) 1760 303 362 504 571 1400 3020 3170 3520 3650
2026-05-09 05:30 2.88 591 4880 (2017) 194 (1980) 1760 303 362 504 571 1400 3020 3170 3520 3650
2026-05-09 04:30 2.89 596 4880 (2017) 194 (1980) 1760 303 362 504 571 1400 3020 3170 3520 3650
2026-05-09 03:30 2.88 591 4880 (2017) 194 (1980) 1760 303 362 504 571 1400 3020 3170 3520 3650
2026-05-09 02:30 2.88 591 4880 (2017) 194 (1980) 1760 303 362 504 571 1400 3020 3170 3520 3650
2026-05-09 01:30 2.90 600 4880 (2017) 194 (1980) 1760 303 362 504 571 1400 3020 3170 3520 3650
2026-05-09 00:30 2.89 596 4880 (2017) 194 (1980) 1760 303 362 504 571 1400 3020 3170 3520 3650
2026-05-08 23:30 2.89 596 4880 (2017) 194 (1980) 1760 303 362 504 571 1400 3020 3170 3520 3650
2026-05-08 22:30 2.89 596 5250 (2017) 193 (1980) 1780 306 354 532 586 1230 3030 3240 3590 3670
2026-05-08 21:30 2.89 596 5250 (2017) 193 (1980) 1780 306 354 532 586 1230 3030 3240 3590 3670
2026-05-08 20:30 2.89 596 5250 (2017) 193 (1980) 1780 306 354 532 586 1230 3030 3240 3590 3670
2026-05-08 19:30 2.90 600 5250 (2017) 193 (1980) 1780 306 354 532 586 1230 3030 3240 3590 3670
2026-05-08 18:30 2.91 605 5250 (2017) 193 (1980) 1780 306 354 532 586 1230 3030 3240 3590 3670
2026-05-08 17:30 2.93 614 5250 (2017) 193 (1980) 1780 306 354 532 586 1230 3030 3240 3590 3670
2026-05-08 16:30 2.95 623 5250 (2017) 193 (1980) 1780 306 354 532 586 1230 3030 3240 3590 3670
2026-05-08 15:30 2.97 632 5250 (2017) 193 (1980) 1780 306 354 532 586 1230 3030 3240 3590 3670
2026-05-08 14:30 3.00 646 5250 (2017) 193 (1980) 1780 306 354 532 586 1230 3030 3240 3590 3670
2026-05-08 13:30 3.04 665 5250 (2017) 193 (1980) 1780 306 354 532 586 1230 3030 3240 3590 3670
2026-05-08 12:30 3.08 684 5250 (2017) 193 (1980) 1780 306 354 532 586 1230 3030 3240 3590 3670
2026-05-08 11:30 3.12 704 5250 (2017) 193 (1980) 1780 306 354 532 586 1230 3030 3240 3590 3670
2026-05-08 10:30 3.16 723 5250 (2017) 193 (1980) 1780 306 354 532 586 1230 3030 3240 3590 3670
2026-05-08 09:30 3.18 733 5250 (2017) 193 (1980) 1780 306 354 532 586 1230 3030 3240 3590 3670
2026-05-08 08:30 3.17 728 5250 (2017) 193 (1980) 1780 306 354 532 586 1230 3030 3240 3590 3670
2026-05-08 07:30 3.18 733 5250 (2017) 193 (1980) 1780 306 354 532 586 1230 3030 3240 3590 3670
2026-05-08 06:30 3.19 738 5250 (2017) 193 (1980) 1780 306 354 532 586 1230 3030 3240 3590 3670
2026-05-08 05:30 3.17 728 5250 (2017) 193 (1980) 1780 306 354 532 586 1230 3030 3240 3590 3670
2026-05-08 04:30 3.18 733 5250 (2017) 193 (1980) 1780 306 354 532 586 1230 3030 3240 3590 3670
2026-05-08 03:30 3.18 733 5250 (2017) 193 (1980) 1780 306 354 532 586 1230 3030 3240 3590 3670
2026-05-08 02:30 3.18 733 5250 (2017) 193 (1980) 1780 306 354 532 586 1230 3030 3240 3590 3670
2026-05-08 01:30 3.18 733 5250 (2017) 193 (1980) 1780 306 354 532 586 1230 3030 3240 3590 3670
2026-05-08 00:30 3.17 728 5250 (2017) 193 (1980) 1780 306 354 532 586 1230 3030 3240 3590 3670
2026-05-07 23:30 3.18 733 5250 (2017) 193 (1980) 1780 306 354 532 586 1230 3030 3240 3590 3670
2026-05-07 22:30 3.17 728 6070 (2017) 198 (1980) 1810 319 345 540 628 1280 3180 3240 3480 3650
2026-05-07 21:30 3.17 728 6070 (2017) 198 (1980) 1810 319 345 540 628 1280 3180 3240 3480 3650
2026-05-07 20:30 3.18 733 6070 (2017) 198 (1980) 1810 319 345 540 628 1280 3180 3240 3480 3650
2026-05-07 19:30 3.17 728 6070 (2017) 198 (1980) 1810 319 345 540 628 1280 3180 3240 3480 3650
2026-05-07 18:30 3.18 733 6070 (2017) 198 (1980) 1810 319 345 540 628 1280 3180 3240 3480 3650
2026-05-07 17:30 3.17 728 6070 (2017) 198 (1980) 1810 319 345 540 628 1280 3180 3240 3480 3650
2026-05-07 16:30 3.17 728 6070 (2017) 198 (1980) 1810 319 345 540 628 1280 3180 3240 3480 3650
2026-05-07 15:30 3.18 733 6070 (2017) 198 (1980) 1810 319 345 540 628 1280 3180 3240 3480 3650
2026-05-07 14:30 3.18 733 6070 (2017) 198 (1980) 1810 319 345 540 628 1280 3180 3240 3480 3650
2026-05-07 13:30 3.18 733 6070 (2017) 198 (1980) 1810 319 345 540 628 1280 3180 3240 3480 3650
2026-05-07 12:30 3.18 733 6070 (2017) 198 (1980) 1810 319 345 540 628 1280 3180 3240 3480 3650
2026-05-07 11:30 3.17 728 6070 (2017) 198 (1980) 1810 319 345 540 628 1280 3180 3240 3480 3650
2026-05-07 10:30 3.18 733 6070 (2017) 198 (1980) 1810 319 345 540 628 1280 3180 3240 3480 3650
2026-05-07 09:30 3.17 728 6070 (2017) 198 (1980) 1810 319 345 540 628 1280 3180 3240 3480 3650
2026-05-07 08:30 3.18 733 6070 (2017) 198 (1980) 1810 319 345 540 628 1280 3180 3240 3480 3650
2026-05-07 07:30 3.18 733 6070 (2017) 198 (1980) 1810 319 345 540 628 1280 3180 3240 3480 3650
2026-05-07 06:30 3.19 738 6070 (2017) 198 (1980) 1810 319 345 540 628 1280 3180 3240 3480 3650
2026-05-07 05:30 3.18 733 6070 (2017) 198 (1980) 1810 319 345 540 628 1280 3180 3240 3480 3650
2026-05-07 04:30 3.17 728 6070 (2017) 198 (1980) 1810 319 345 540 628 1280 3180 3240 3480 3650
2026-05-07 03:30 3.17 728 6070 (2017) 198 (1980) 1810 319 345 540 628 1280 3180 3240 3480 3650
2026-05-07 02:30 3.17 728 6070 (2017) 198 (1980) 1810 319 345 540 628 1280 3180 3240 3480 3650
2026-05-07 01:30 3.18 733 6070 (2017) 198 (1980) 1810 319 345 540 628 1280 3180 3240 3480 3650
2026-05-07 00:30 3.17 728 6070 (2017) 198 (1980) 1810 319 345 540 628 1280 3180 3240 3480 3650
2026-05-06 23:30 3.17 728 6070 (2017) 198 (1980) 1810 319 345 540 628 1280 3180 3240 3480 3650
2026-05-06 22:30 3.17 728 6420 (2017) 216 (1980) 1840 293 357 576 628 1340 3100 3210 3550 3940
2026-05-06 21:30 3.16 723 6420 (2017) 216 (1980) 1840 293 357 576 628 1340 3100 3210 3550 3940
2026-05-06 20:30 3.16 723 6420 (2017) 216 (1980) 1840 293 357 576 628 1340 3100 3210 3550 3940
2026-05-06 19:30 3.14 713 6420 (2017) 216 (1980) 1840 293 357 576 628 1340 3100 3210 3550 3940
2026-05-06 18:30 3.14 713 6420 (2017) 216 (1980) 1840 293 357 576 628 1340 3100 3210 3550 3940
2026-05-06 17:30 3.12 704 6420 (2017) 216 (1980) 1840 293 357 576 628 1340 3100 3210 3550 3940
2026-05-06 16:30 3.11 699 6420 (2017) 216 (1980) 1840 293 357 576 628 1340 3100 3210 3550 3940
2026-05-06 15:30 3.07 679 6420 (2017) 216 (1980) 1840 293 357 576 628 1340 3100 3210 3550 3940
2026-05-06 14:30 3.04 665 6420 (2017) 216 (1980) 1840 293 357 576 628 1340 3100 3210 3550 3940
2026-05-06 13:30 3.00 646 6420 (2017) 216 (1980) 1840 293 357 576 628 1340 3100 3210 3550 3940
2026-05-06 12:30 2.94 618 6420 (2017) 216 (1980) 1840 293 357 576 628 1340 3100 3210 3550 3940
2026-05-06 11:30 2.91 605 6420 (2017) 216 (1980) 1840 293 357 576 628 1340 3100 3210 3550 3940
2026-05-06 10:30 2.91 605 6420 (2017) 216 (1980) 1840 293 357 576 628 1340 3100 3210 3550 3940
2026-05-06 09:30 2.92 609 6420 (2017) 216 (1980) 1840 293 357 576 628 1340 3100 3210 3550 3940
2026-05-06 08:30 2.92 609 6420 (2017) 216 (1980) 1840 293 357 576 628 1340 3100 3210 3550 3940
2026-05-06 07:30 2.93 614 6420 (2017) 216 (1980) 1840 293 357 576 628 1340 3100 3210 3550 3940
2026-05-06 06:30 2.93 614 6420 (2017) 216 (1980) 1840 293 357 576 628 1340 3100 3210 3550 3940
2026-05-06 05:30 2.93 614 6420 (2017) 216 (1980) 1840 293 357 576 628 1340 3100 3210 3550 3940
2026-05-06 04:30 2.94 618 6420 (2017) 216 (1980) 1840 293 357 576 628 1340 3100 3210 3550 3940
2026-05-06 03:30 2.94 618 6420 (2017) 216 (1980) 1840 293 357 576 628 1340 3100 3210 3550 3940
2026-05-06 02:30 2.94 618 6420 (2017) 216 (1980) 1840 293 357 576 628 1340 3100 3210 3550 3940
2026-05-06 01:30 2.94 618 6420 (2017) 216 (1980) 1840 293 357 576 628 1340 3100 3210 3550 3940
2026-05-06 00:30 2.94 618 6420 (2017) 216 (1980) 1840 293 357 576 628 1340 3100 3210 3550 3940
2026-05-05 23:30 2.91 605 6420 (2017) 216 (1980) 1840 293 357 576 628 1340 3100 3210 3550 3940
2026-05-05 22:30 2.89 596 5770 (2017) 234 (1981) 1740 308 379 665 682 1330 2930 3090 3390 3720
2026-05-05 21:30 2.87 587 5770 (2017) 234 (1981) 1740 308 379 665 682 1330 2930 3090 3390 3720
2026-05-05 20:30 2.88 591 5770 (2017) 234 (1981) 1740 308 379 665 682 1330 2930 3090 3390 3720
2026-05-05 19:30 2.88 591 5770 (2017) 234 (1981) 1740 308 379 665 682 1330 2930 3090 3390 3720
2026-05-05 18:30 2.88 591 5770 (2017) 234 (1981) 1740 308 379 665 682 1330 2930 3090 3390 3720
2026-05-05 17:30 2.88 591 5770 (2017) 234 (1981) 1740 308 379 665 682 1330 2930 3090 3390 3720
2026-05-05 16:30 2.89 596 5770 (2017) 234 (1981) 1740 308 379 665 682 1330 2930 3090 3390 3720
2026-05-05 15:30 2.89 596 5770 (2017) 234 (1981) 1740 308 379 665 682 1330 2930 3090 3390 3720
2026-05-05 14:30 2.89 596 5770 (2017) 234 (1981) 1740 308 379 665 682 1330 2930 3090 3390 3720
2026-05-05 13:30 2.90 600 5770 (2017) 234 (1981) 1740 308 379 665 682 1330 2930 3090 3390 3720
2026-05-05 12:30 2.88 591 5770 (2017) 234 (1981) 1740 308 379 665 682 1330 2930 3090 3390 3720
2026-05-05 11:30 2.89 596 5770 (2017) 234 (1981) 1740 308 379 665 682 1330 2930 3090 3390 3720
2026-05-05 10:30 2.90 600 5770 (2017) 234 (1981) 1740 308 379 665 682 1330 2930 3090 3390 3720
2026-05-05 09:30 2.90 600 5770 (2017) 234 (1981) 1740 308 379 665 682 1330 2930 3090 3390 3720
2026-05-05 08:30 2.89 596 5770 (2017) 234 (1981) 1740 308 379 665 682 1330 2930 3090 3390 3720
2026-05-05 07:30 2.90 600 5770 (2017) 234 (1981) 1740 308 379 665 682 1330 2930 3090 3390 3720
2026-05-05 06:30 2.90 600 5770 (2017) 234 (1981) 1740 308 379 665 682 1330 2930 3090 3390 3720
2026-05-05 05:30 2.89 596 5770 (2017) 234 (1981) 1740 308 379 665 682 1330 2930 3090 3390 3720
2026-05-05 04:30 2.89 596 5770 (2017) 234 (1981) 1740 308 379 665 682 1330 2930 3090 3390 3720
2026-05-05 03:30 2.90 600 5770 (2017) 234 (1981) 1740 308 379 665 682 1330 2930 3090 3390 3720
2026-05-05 02:30 2.90 600 5770 (2017) 234 (1981) 1740 308 379 665 682 1330 2930 3090 3390 3720
2026-05-05 01:30 2.91 605 5770 (2017) 234 (1981) 1740 308 379 665 682 1330 2930 3090 3390 3720
2026-05-05 00:30 2.91 605 5770 (2017) 234 (1981) 1740 308 379 665 682 1330 2930 3090 3390 3720
2026-05-04 23:30 2.93 614 5770 (2017) 234 (1981) 1740 308 379 665 682 1330 2930 3090 3390 3720
2026-05-04 22:30 2.92 609 5760 (2017) 271 (1981) 1710 328 391 676 726 1370 2650 2990 3410 3790
2026-05-04 21:30 2.94 618 5760 (2017) 271 (1981) 1710 328 391 676 726 1370 2650 2990 3410 3790
2026-05-04 20:30 2.95 623 5760 (2017) 271 (1981) 1710 328 391 676 726 1370 2650 2990 3410 3790
2026-05-04 19:30 2.97 632 5760 (2017) 271 (1981) 1710 328 391 676 726 1370 2650 2990 3410 3790
2026-05-04 18:30 2.99 641 5760 (2017) 271 (1981) 1710 328 391 676 726 1370 2650 2990 3410 3790
2026-05-04 17:30 3.01 650 5760 (2017) 271 (1981) 1710 328 391 676 726 1370 2650 2990 3410 3790
2026-05-04 16:30 3.06 674 5760 (2017) 271 (1981) 1710 328 391 676 726 1370 2650 2990 3410 3790
2026-05-04 15:30 3.10 694 5760 (2017) 271 (1981) 1710 328 391 676 726 1370 2650 2990 3410 3790
2026-05-04 14:30 3.17 728 5760 (2017) 271 (1981) 1710 328 391 676 726 1370 2650 2990 3410 3790
2026-05-04 13:30 3.24 763 5760 (2017) 271 (1981) 1710 328 391 676 726 1370 2650 2990 3410 3790
2026-05-04 12:30 3.35 820 5760 (2017) 271 (1981) 1710 328 391 676 726 1370 2650 2990 3410 3790
2026-05-04 11:30 3.42 857 5760 (2017) 271 (1981) 1710 328 391 676 726 1370 2650 2990 3410 3790
2026-05-04 10:30 3.46 878 5760 (2017) 271 (1981) 1710 328 391 676 726 1370 2650 2990 3410 3790
2026-05-04 09:30 3.48 889 5760 (2017) 271 (1981) 1710 328 391 676 726 1370 2650 2990 3410 3790
2026-05-04 08:30 3.47 883 5760 (2017) 271 (1981) 1710 328 391 676 726 1370 2650 2990 3410 3790
2026-05-04 07:30 3.47 883 5760 (2017) 271 (1981) 1710 328 391 676 726 1370 2650 2990 3410 3790
2026-05-04 06:30 3.47 883 5760 (2017) 271 (1981) 1710 328 391 676 726 1370 2650 2990 3410 3790
2026-05-04 05:30 3.46 878 5760 (2017) 271 (1981) 1710 328 391 676 726 1370 2650 2990 3410 3790
2026-05-04 04:30 3.47 883 5760 (2017) 271 (1981) 1710 328 391 676 726 1370 2650 2990 3410 3790
2026-05-04 03:30 3.48 889 5760 (2017) 271 (1981) 1710 328 391 676 726 1370 2650 2990 3410 3790
2026-05-04 02:30 3.48 889 5760 (2017) 271 (1981) 1710 328 391 676 726 1370 2650 2990 3410 3790
2026-05-04 01:30 3.48 889 5760 (2017) 271 (1981) 1710 328 391 676 726 1370 2650 2990 3410 3790
2026-05-04 00:30 3.48 889 5760 (2017) 271 (1981) 1710 328 391 676 726 1370 2650 2990 3410 3790
2026-05-03 23:30 3.47 883 5760 (2017) 271 (1981) 1710 328 391 676 726 1370 2650 2990 3410 3790
2026-05-03 22:30 3.48 889 5010 (2011) 228 (1984) 1750 289 377 655 683 1390 2740 2990 3470 3800
2026-05-03 21:30 3.47 883 5010 (2011) 228 (1984) 1750 289 377 655 683 1390 2740 2990 3470 3800
2026-05-03 20:30 3.48 889 5010 (2011) 228 (1984) 1750 289 377 655 683 1390 2740 2990 3470 3800
2026-05-03 19:30 3.47 883 5010 (2011) 228 (1984) 1750 289 377 655 683 1390 2740 2990 3470 3800
2026-05-03 18:30 3.47 883 5010 (2011) 228 (1984) 1750 289 377 655 683 1390 2740 2990 3470 3800
2026-05-03 17:30 3.47 883 5010 (2011) 228 (1984) 1750 289 377 655 683 1390 2740 2990 3470 3800
2026-05-03 16:30 3.47 883 5010 (2011) 228 (1984) 1750 289 377 655 683 1390 2740 2990 3470 3800
2026-05-03 15:30 3.47 883 5010 (2011) 228 (1984) 1750 289 377 655 683 1390 2740 2990 3470 3800
2026-05-03 14:30 3.47 883 5010 (2011) 228 (1984) 1750 289 377 655 683 1390 2740 2990 3470 3800
2026-05-03 13:30 3.48 889 5010 (2011) 228 (1984) 1750 289 377 655 683 1390 2740 2990 3470 3800
2026-05-03 12:30 3.47 883 5010 (2011) 228 (1984) 1750 289 377 655 683 1390 2740 2990 3470 3800
2026-05-03 11:30 3.48 889 5010 (2011) 228 (1984) 1750 289 377 655 683 1390 2740 2990 3470 3800
2026-05-03 10:30 3.47 883 5010 (2011) 228 (1984) 1750 289 377 655 683 1390 2740 2990 3470 3800
2026-05-03 09:30 3.48 889 5010 (2011) 228 (1984) 1750 289 377 655 683 1390 2740 2990 3470 3800
2026-05-03 08:30 3.47 883 5010 (2011) 228 (1984) 1750 289 377 655 683 1390 2740 2990 3470 3800
2026-05-03 07:30 3.47 883 5010 (2011) 228 (1984) 1750 289 377 655 683 1390 2740 2990 3470 3800
2026-05-03 06:30 3.47 883 5010 (2011) 228 (1984) 1750 289 377 655 683 1390 2740 2990 3470 3800
2026-05-03 05:30 3.48 889 5010 (2011) 228 (1984) 1750 289 377 655 683 1390 2740 2990 3470 3800
2026-05-03 04:30 3.47 883 5010 (2011) 228 (1984) 1750 289 377 655 683 1390 2740 2990 3470 3800
2026-05-03 03:30 3.48 889 5010 (2011) 228 (1984) 1750 289 377 655 683 1390 2740 2990 3470 3800
2026-05-03 02:30 3.47 883 5010 (2011) 228 (1984) 1750 289 377 655 683 1390 2740 2990 3470 3800
2026-05-03 01:30 3.47 883 5010 (2011) 228 (1984) 1750 289 377 655 683 1390 2740 2990 3470 3800
2026-05-03 00:30 3.47 883 5010 (2011) 228 (1984) 1750 289 377 655 683 1390 2740 2990 3470 3800
2026-05-02 23:30 3.47 883 5010 (2011) 228 (1984) 1750 289 377 655 683 1390 2740 2990 3470 3800

A total of 178 rows are displayed for years 1949 through 2025.